Terminal Aerodrome Forecast
Issued by NWS Cleveland, OH

Home | Current Version | Previous Version | Graphics & Text | Print | Product List | Glossary On
Versions: 1 2 3 4 5 6 7 8 9 10 11 12 13 14 15 16 17 18
000
FTUS41 KCLE 171200 AAA
TAFMFD
TAF AMD
KMFD 171257Z 1713/1812 19015G22KT P6SM SCT018
      TEMPO 1713/1716 BKN018
     FM171600 21015G25KT P6SM BKN025
     FM171800 21015G25KT P6SM BKN050
     FM180000 25012KT P6SM VCSH OVC035
     FM180400 27015KT P6SM VCSH OVC020=

USA.gov is the U.S. government's official web portal to all federal, state and local government web resources and services.